createdAt,value
2022-12-11T00:00:26.125Z,100153.22
2022-12-11T00:02:53.047Z,100151.91
2022-12-11T00:05:19.961Z,100151.09
2022-12-11T00:07:46.852Z,100161.19
2022-12-11T00:10:13.760Z,100156.03
2022-12-11T00:12:40.593Z,100159.94
2022-12-11T00:15:08.685Z,100161.94
2022-12-11T00:17:35.977Z,100165.75
2022-12-11T00:20:03.006Z,100162.94
2022-12-11T00:22:32.870Z,100160.00
2022-12-11T00:24:59.714Z,100155.88
2022-12-11T00:27:26.547Z,100161.00
2022-12-11T00:29:53.354Z,100165.19
2022-12-11T00:32:20.188Z,100162.47
2022-12-11T00:34:47.010Z,100164.34
2022-12-11T00:37:14.014Z,100169.88
2022-12-11T00:39:40.920Z,100166.31
2022-12-11T00:42:08.568Z,100161.31
2022-12-11T00:44:35.994Z,100155.88
2022-12-11T00:47:03.734Z,100153.22
2022-12-11T00:49:30.607Z,100154.09
2022-12-11T00:51:57.430Z,100152.44
2022-12-11T00:54:24.294Z,100144.69
2022-12-11T00:56:51.109Z,100148.34
2022-12-11T00:59:17.935Z,100151.75
2022-12-11T01:01:44.886Z,100146.84
2022-12-11T01:04:11.779Z,100150.50
2022-12-11T01:06:39.694Z,100154.09
2022-12-11T01:09:25.091Z,100151.75
2022-12-11T01:11:52.548Z,100151.53
2022-12-11T01:14:19.523Z,100160.41
2022-12-11T01:16:46.392Z,100166.66
2022-12-11T01:19:13.486Z,100165.31
2022-12-11T01:21:41.112Z,100149.31
2022-12-11T01:24:08.159Z,100161.22
2022-12-11T01:26:34.949Z,100162.84
2022-12-11T01:29:01.945Z,100161.00
2022-12-11T01:31:28.946Z,100176.34
2022-12-11T01:33:56.497Z,100161.84
2022-12-11T01:36:23.887Z,100156.44
2022-12-11T01:38:51.257Z,100157.91
2022-12-11T01:41:18.941Z,100154.47
2022-12-11T01:44:27.727Z,100156.44
2022-12-11T01:46:54.689Z,100176.06
2022-12-11T01:49:26.028Z,100175.69
2022-12-11T01:52:19.941Z,100165.50
2022-12-11T01:54:48.235Z,100169.78
2022-12-11T01:57:16.209Z,100164.03
2022-12-11T01:59:45.968Z,100159.38
2022-12-11T02:02:21.153Z,100178.47
2022-12-11T02:04:49.378Z,100177.09
2022-12-11T02:07:16.698Z,100167.94
2022-12-11T02:09:46.776Z,100155.88
2022-12-11T02:12:37.322Z,100150.91
2022-12-11T02:15:22.706Z,100152.81
2022-12-11T02:17:58.365Z,100155.25
2022-12-11T02:20:30.874Z,100161.25
2022-12-11T02:23:27.251Z,100167.31
2022-12-11T02:26:23.726Z,100176.78
2022-12-11T02:29:02.154Z,100173.22
2022-12-11T02:31:47.843Z,100171.59
2022-12-11T02:34:41.094Z,100163.31
2022-12-11T02:37:14.778Z,100169.94
2022-12-11T02:39:43.548Z,100171.66
2022-12-11T02:42:12.692Z,100164.66
2022-12-11T02:44:41.258Z,100171.41
2022-12-11T02:47:14.163Z,100165.44
2022-12-11T02:49:45.103Z,100168.00
2022-12-11T02:52:14.792Z,100169.56
2022-12-11T02:54:45.045Z,100177.94
2022-12-11T02:57:34.202Z,100172.66
2022-12-11T03:00:01.330Z,100169.31
2022-12-11T03:02:28.200Z,100164.34
2022-12-11T03:04:57.610Z,100166.13
2022-12-11T03:07:36.075Z,100163.63
2022-12-11T03:10:04.771Z,100164.47
2022-12-11T03:12:37.331Z,100153.66
2022-12-11T03:15:10.132Z,100158.28
2022-12-11T03:18:07.941Z,100156.19
2022-12-11T03:21:38.155Z,100162.16
2022-12-11T03:24:17.351Z,100168.06
2022-12-11T03:26:56.347Z,100165.75
2022-12-11T03:29:31.239Z,100172.34
2022-12-11T03:32:11.329Z,100164.88
2022-12-11T03:35:03.914Z,100164.16
2022-12-11T03:37:36.083Z,100164.84
2022-12-11T03:40:17.292Z,100179.75
2022-12-11T03:42:49.202Z,100169.03
2022-12-11T03:45:19.331Z,100174.88
2022-12-11T03:47:47.317Z,100168.88
2022-12-11T03:50:16.692Z,100172.44
2022-12-11T03:52:47.750Z,100172.13
2022-12-11T03:55:17.673Z,100170.47
2022-12-11T03:57:44.996Z,100166.09
2022-12-11T04:00:16.542Z,100167.47
2022-12-11T04:02:44.719Z,100162.50
2022-12-11T04:05:12.489Z,100173.88
2022-12-11T04:07:39.654Z,100162.59
2022-12-11T04:10:06.680Z,100168.59
2022-12-11T04:12:33.486Z,100162.78
2022-12-11T04:15:03.050Z,100161.00
2022-12-11T04:17:54.314Z,100155.47
2022-12-11T04:20:40.681Z,100157.03
2022-12-11T04:23:32.513Z,100161.31
2022-12-11T04:26:14.300Z,100159.59
2022-12-11T04:28:42.948Z,100156.94
2022-12-11T04:31:16.157Z,100158.81
2022-12-11T04:33:43.424Z,100158.63
2022-12-11T04:36:11.803Z,100161.47
2022-12-11T04:38:39.532Z,100161.97
2022-12-11T04:41:11.480Z,100158.06
2022-12-11T04:43:39.053Z,100151.81
2022-12-11T04:46:15.932Z,100159.41
2022-12-11T04:48:43.164Z,100157.47
2022-12-11T04:51:10.731Z,100151.28
2022-12-11T04:53:38.287Z,100157.25
2022-12-11T04:56:07.829Z,100155.41
2022-12-11T04:58:35.940Z,100154.22
2022-12-11T05:01:21.548Z,100158.28
2022-12-11T05:03:49.419Z,100152.97
2022-12-11T05:06:16.404Z,100155.47
2022-12-11T05:08:43.794Z,100147.72
2022-12-11T05:11:14.275Z,100143.34
2022-12-11T05:13:42.015Z,100141.81
2022-12-11T05:16:11.549Z,100140.66
2022-12-11T05:18:38.510Z,100138.94
2022-12-11T05:21:09.997Z,100128.38
2022-12-11T05:23:37.241Z,100136.59
2022-12-11T05:26:08.650Z,100126.56
2022-12-11T05:28:38.149Z,100129.31
2022-12-11T05:31:10.624Z,100130.97
2022-12-11T05:33:37.690Z,100131.03
2022-12-11T05:36:05.090Z,100130.78
2022-12-11T05:38:31.998Z,100133.41
2022-12-11T05:41:05.965Z,100144.81
2022-12-11T05:43:36.324Z,100141.25
2022-12-11T05:46:16.873Z,100144.00
2022-12-11T05:48:46.453Z,100146.16
2022-12-11T05:51:15.421Z,100144.06
2022-12-11T05:53:43.851Z,100145.47
2022-12-11T05:56:17.413Z,100136.91
2022-12-11T05:58:46.072Z,100128.28
2022-12-11T06:01:22.547Z,100126.06
2022-12-11T06:03:49.477Z,100125.50
2022-12-11T06:06:16.374Z,100126.28
2022-12-11T06:08:43.666Z,100129.84
2022-12-11T06:11:20.887Z,100134.13
2022-12-11T06:13:50.631Z,100134.13
2022-12-11T06:16:17.708Z,100132.47
2022-12-11T06:18:45.648Z,100125.00
2022-12-11T06:21:25.077Z,100124.72
2022-12-11T06:23:54.583Z,100112.06
2022-12-11T06:26:22.280Z,100118.03
2022-12-11T06:28:49.701Z,100115.47
2022-12-11T06:31:17.335Z,100104.94
2022-12-11T06:33:45.048Z,100108.09
2022-12-11T06:36:17.100Z,100106.06
2022-12-11T06:38:44.987Z,100100.66
2022-12-11T06:41:12.637Z,100114.53
2022-12-11T06:43:40.902Z,100111.28
2022-12-11T06:46:11.238Z,100110.94
2022-12-11T06:48:38.797Z,100115.78
2022-12-11T06:51:08.124Z,100111.44
2022-12-11T06:53:35.429Z,100117.47
2022-12-11T06:56:08.815Z,100111.66
2022-12-11T06:58:37.388Z,100110.97
2022-12-11T07:01:12.306Z,100113.63
2022-12-11T07:03:39.221Z,100114.22
2022-12-11T07:06:06.312Z,100119.16
2022-12-11T07:08:33.648Z,100126.16
2022-12-11T07:11:10.087Z,100123.31
2022-12-11T07:13:37.387Z,100123.81
2022-12-11T07:16:10.681Z,100117.97
2022-12-11T07:18:39.780Z,100125.03
2022-12-11T07:21:07.886Z,100119.25
2022-12-11T07:23:35.556Z,100119.91
2022-12-11T07:26:08.440Z,100119.63
2022-12-11T07:28:36.430Z,100115.78
2022-12-11T07:31:13.385Z,100122.78
2022-12-11T07:33:40.809Z,100121.41
2022-12-11T07:36:10.091Z,100131.56
2022-12-11T07:38:37.478Z,100138.03
2022-12-11T07:41:12.235Z,100125.31
2022-12-11T07:43:39.751Z,100126.44
2022-12-11T07:46:16.483Z,100128.16
2022-12-11T07:48:45.903Z,100142.34
2022-12-11T07:51:18.940Z,100134.75
2022-12-11T07:53:48.135Z,100145.22
2022-12-11T07:56:16.665Z,100127.28
2022-12-11T07:58:44.159Z,100138.78
2022-12-11T08:01:21.886Z,100131.09
2022-12-11T08:03:49.339Z,100132.41
2022-12-11T08:06:16.842Z,100139.78
2022-12-11T08:08:44.213Z,100141.16
2022-12-11T08:11:14.627Z,100133.03
2022-12-11T08:13:44.011Z,100129.28
2022-12-11T08:16:14.605Z,100135.00
2022-12-11T08:18:43.564Z,100136.16
2022-12-11T08:21:15.953Z,100132.47
2022-12-11T08:23:43.759Z,100127.56
2022-12-11T08:26:18.023Z,100138.44
2022-12-11T08:28:45.076Z,100143.06
2022-12-11T08:31:14.169Z,100138.38
2022-12-11T08:33:41.915Z,100128.56
2022-12-11T08:36:13.133Z,100121.84
2022-12-11T08:38:40.655Z,100125.59
2022-12-11T08:41:20.102Z,100126.22
2022-12-11T08:43:48.165Z,100132.75
2022-12-11T08:46:15.622Z,100130.06
2022-12-11T08:48:44.013Z,100142.72
2022-12-11T08:51:16.181Z,100148.81
2022-12-11T08:53:43.564Z,100149.09
2022-12-11T08:56:16.224Z,100146.50
2022-12-11T08:58:44.103Z,100152.25
2022-12-11T09:01:14.731Z,100152.88
2022-12-11T09:03:42.492Z,100148.81
2022-12-11T09:06:16.184Z,100139.13
2022-12-11T09:08:51.671Z,100133.75
2022-12-11T09:11:23.290Z,100137.56
2022-12-11T09:13:50.539Z,100150.09
2022-12-11T09:16:20.867Z,100146.75
2022-12-11T09:18:50.183Z,100139.38
2022-12-11T09:21:20.535Z,100139.91
2022-12-11T09:23:48.279Z,100130.81
2022-12-11T09:26:18.119Z,100124.44
2022-12-11T09:28:47.011Z,100119.47
2022-12-11T09:31:24.799Z,100135.00
2022-12-11T09:33:55.322Z,100134.47
2022-12-11T09:36:22.746Z,100134.13
2022-12-11T09:38:49.611Z,100122.25
2022-12-11T09:41:22.436Z,100128.75
2022-12-11T09:44:12.182Z,100134.34
2022-12-11T09:46:39.985Z,100142.13
2022-12-11T09:49:32.140Z,100131.72
2022-12-11T09:52:18.770Z,100131.53
2022-12-11T09:54:59.618Z,100134.56
2022-12-11T09:57:33.456Z,100132.56
2022-12-11T10:00:33.087Z,100129.53
2022-12-11T10:03:23.866Z,100131.13
2022-12-11T10:06:12.897Z,100122.59
2022-12-11T10:09:12.446Z,100123.53
2022-12-11T10:12:12.450Z,100122.34
2022-12-11T10:15:22.257Z,100117.53
2022-12-11T10:17:49.487Z,100110.84
2022-12-11T10:20:39.702Z,100101.91
2022-12-11T10:23:10.331Z,100099.22
2022-12-11T10:25:42.900Z,100100.44
2022-12-11T10:28:19.337Z,100100.78
2022-12-11T10:31:20.086Z,100103.59
2022-12-11T10:34:13.338Z,100102.47
2022-12-11T10:36:42.511Z,100100.81
2022-12-11T10:39:21.677Z,100100.63
2022-12-11T10:41:51.403Z,100087.81
2022-12-11T10:44:22.121Z,100088.94
2022-12-11T10:47:13.659Z,100087.53
2022-12-11T10:49:54.076Z,100083.78
2022-12-11T10:52:28.564Z,100090.34
2022-12-11T10:55:27.836Z,100080.72
2022-12-11T10:58:06.368Z,100078.34
2022-12-11T11:00:41.239Z,100068.88
2022-12-11T11:03:27.830Z,100069.09
2022-12-11T11:06:15.144Z,100061.34
2022-12-11T11:08:49.063Z,100066.94
2022-12-11T11:11:36.818Z,100059.41
2022-12-11T11:14:20.241Z,100061.53
2022-12-11T11:16:50.330Z,100054.16
2022-12-11T11:19:36.044Z,100054.44
2022-12-11T11:22:09.294Z,100053.91
2022-12-11T11:24:56.293Z,100055.09
2022-12-11T11:27:48.776Z,100047.78
2022-12-11T11:30:28.014Z,100042.25
2022-12-11T11:33:04.466Z,100039.09
2022-12-11T11:35:32.955Z,100039.47
2022-12-11T11:38:18.887Z,100040.13
2022-12-11T11:41:05.637Z,100033.91
2022-12-11T11:43:43.455Z,100037.31
2022-12-11T11:46:30.002Z,100035.78
2022-12-11T11:49:56.144Z,100035.00
2022-12-11T11:52:56.665Z,100029.09
2022-12-11T11:55:45.798Z,100026.44
2022-12-11T11:58:37.799Z,100026.38
2022-12-11T12:01:05.021Z,100027.41
2022-12-11T12:03:31.856Z,100028.06
2022-12-11T12:06:38.321Z,100030.38
2022-12-11T12:09:24.096Z,100025.72
2022-12-11T12:12:12.431Z,100029.69
2022-12-11T12:15:18.773Z,100027.56
2022-12-11T12:18:16.692Z,100034.69
2022-12-11T12:20:58.748Z,100037.06
2022-12-11T12:24:16.773Z,100036.22
2022-12-11T12:30:23.237Z,100029.88
2022-12-11T12:32:55.814Z,100032.97
2022-12-11T12:35:37.271Z,100032.50
2022-12-11T12:38:40.247Z,100032.13
2022-12-11T12:41:49.947Z,100033.56
2022-12-11T12:44:20.320Z,100030.47
2022-12-11T12:47:22.932Z,100025.25
2022-12-11T12:49:53.632Z,100022.41
2022-12-11T12:52:25.395Z,100022.41
2022-12-11T12:55:16.563Z,100018.63
2022-12-11T12:58:01.750Z,100015.69
2022-12-11T13:00:40.211Z,100005.41
2022-12-11T13:03:23.639Z,100010.03
2022-12-11T13:06:09.500Z,100009.09
2022-12-11T13:08:48.947Z,100007.81
2022-12-11T13:11:19.894Z,100009.00
2022-12-11T13:14:04.811Z,100003.50
2022-12-11T13:16:42.038Z,99998.03
2022-12-11T13:19:23.919Z,99995.91
2022-12-11T13:22:02.410Z,100001.00
2022-12-11T13:24:33.206Z,100004.25
2022-12-11T13:27:37.129Z,99998.31
2022-12-11T13:30:22.812Z,100007.44
2022-12-11T13:33:18.131Z,99999.44
2022-12-11T13:35:45.499Z,100003.25
2022-12-11T13:38:22.749Z,100005.88
2022-12-11T13:40:54.620Z,100004.84
2022-12-11T13:43:26.504Z,100014.91
2022-12-11T13:46:01.321Z,100019.25
2022-12-11T13:48:35.309Z,100020.75
2022-12-11T13:51:04.090Z,100013.47
2022-12-11T13:53:30.980Z,100021.66
2022-12-11T13:56:14.906Z,100026.25
2022-12-11T13:58:41.961Z,100025.22
2022-12-11T14:01:12.752Z,100025.22
2022-12-11T14:03:46.871Z,100021.84
2022-12-11T14:06:18.603Z,100029.94
2022-12-11T14:08:53.679Z,100025.00
2022-12-11T14:11:28.409Z,100037.06
2022-12-11T14:13:58.776Z,100033.47
2022-12-11T14:16:27.472Z,100039.47
2022-12-11T14:18:59.447Z,100043.09
2022-12-11T14:21:26.352Z,100039.25
2022-12-11T14:23:59.993Z,100041.69
2022-12-11T14:26:29.773Z,100038.41
2022-12-11T14:28:56.666Z,100035.59
2022-12-11T14:31:41.868Z,100038.47
2022-12-11T14:34:19.348Z,100042.88
2022-12-11T14:36:48.062Z,100035.78
2022-12-11T14:39:22.899Z,100043.19
2022-12-11T14:42:00.173Z,100042.22
2022-12-11T14:44:33.346Z,100047.44
2022-12-11T14:47:10.921Z,100050.28
2022-12-11T14:50:16.874Z,100043.31
2022-12-11T14:52:53.843Z,100045.22
2022-12-11T14:55:29.939Z,100046.25
2022-12-11T14:58:14.568Z,100056.69
2022-12-11T15:00:41.455Z,100056.69
2022-12-11T15:03:23.194Z,100059.50
2022-12-11T15:05:56.110Z,100055.41
2022-12-11T15:08:32.437Z,100059.72
2022-12-11T15:11:08.370Z,100063.00
2022-12-11T15:13:39.927Z,100059.72
2022-12-11T15:16:08.106Z,100066.34
2022-12-11T15:18:38.395Z,100059.69
2022-12-11T15:21:10.238Z,100064.19
2022-12-11T15:23:54.994Z,100053.00
2022-12-11T15:26:59.277Z,100066.66
2022-12-11T15:29:34.491Z,100064.06
2022-12-11T15:32:14.264Z,100062.06
2022-12-11T15:34:48.862Z,100066.97
2022-12-11T15:37:30.215Z,100060.88
2022-12-11T15:40:01.531Z,100064.31
2022-12-11T15:42:37.067Z,100073.66
2022-12-11T15:45:09.576Z,100072.00
2022-12-11T15:47:36.895Z,100069.47
2022-12-11T15:50:18.700Z,100071.09
2022-12-11T15:52:46.486Z,100068.59
2022-12-11T15:55:14.283Z,100068.66
2022-12-11T15:58:09.277Z,100066.84
2022-12-11T16:00:36.176Z,100075.03
2022-12-11T16:03:03.071Z,100069.34
2022-12-11T16:05:30.016Z,100065.25
2022-12-11T16:07:59.393Z,100066.63
2022-12-11T16:10:28.858Z,100065.72
2022-12-11T16:12:59.316Z,100068.38
2022-12-11T16:15:27.553Z,100070.28
2022-12-11T16:18:10.779Z,100066.56
2022-12-11T16:20:40.280Z,100064.97
2022-12-11T16:23:08.283Z,100063.13
2022-12-11T16:25:39.327Z,100060.72
2022-12-11T16:28:07.027Z,100063.31
2022-12-11T16:30:37.517Z,100067.66
2022-12-11T16:33:12.008Z,100061.16
2022-12-11T16:35:39.873Z,100063.66
2022-12-11T16:38:07.699Z,100061.25
2022-12-11T16:40:34.569Z,100067.19
2022-12-11T16:43:03.524Z,100064.63
2022-12-11T16:45:30.521Z,100062.00
2022-12-11T16:47:57.332Z,100056.56
2022-12-11T16:50:25.312Z,100060.03
2022-12-11T16:52:52.378Z,100057.41
2022-12-11T16:55:22.131Z,100060.44
2022-12-11T16:57:49.054Z,100066.13
2022-12-11T17:00:16.574Z,100057.47
2022-12-11T17:02:43.535Z,100066.13
2022-12-11T17:05:11.023Z,100057.47
2022-12-11T17:07:40.743Z,100061.97
2022-12-11T17:10:08.445Z,100057.09
2022-12-11T17:12:35.348Z,100055.59
2022-12-11T17:15:02.301Z,100051.78
2022-12-11T17:17:29.179Z,100058.41
2022-12-11T17:19:56.160Z,100047.41
2022-12-11T17:22:23.021Z,100053.47
2022-12-11T17:24:49.842Z,100046.97
2022-12-11T17:27:16.875Z,100044.22
2022-12-11T17:29:43.914Z,100044.81
2022-12-11T17:32:11.272Z,100046.63
2022-12-11T17:34:38.825Z,100050.97
2022-12-11T17:37:06.460Z,100047.38
2022-12-11T17:39:33.683Z,100043.81
2022-12-11T17:42:00.869Z,100042.22
2022-12-11T17:44:30.505Z,100050.56
2022-12-11T17:47:04.726Z,100056.69
2022-12-11T17:49:34.494Z,100049.94
2022-12-11T17:52:01.345Z,100053.00
2022-12-11T17:54:28.143Z,100049.28
2022-12-11T17:56:54.980Z,100056.31
2022-12-11T17:59:21.816Z,100049.19
2022-12-11T18:01:48.809Z,100053.19
2022-12-11T18:04:15.882Z,100055.31
2022-12-11T18:06:42.694Z,100054.03
2022-12-11T18:09:10.243Z,100048.59
2022-12-11T18:11:37.363Z,100056.13
2022-12-11T18:14:04.477Z,100047.38
2022-12-11T18:16:35.672Z,100044.78
2022-12-11T18:19:02.740Z,100037.06
2022-12-11T18:21:34.010Z,100043.84
2022-12-11T18:24:01.849Z,100052.97
2022-12-11T18:26:29.474Z,100058.53
2022-12-11T18:28:56.502Z,100063.59
2022-12-11T18:31:24.747Z,100052.34
2022-12-11T18:33:52.219Z,100049.63
2022-12-11T18:36:20.284Z,100045.03
2022-12-11T18:38:48.073Z,100047.38
2022-12-11T18:41:16.864Z,100056.59
2022-12-11T18:43:44.026Z,100056.91
2022-12-11T18:46:14.527Z,100053.91
2022-12-11T18:48:43.144Z,100063.53
2022-12-11T18:51:14.697Z,100049.38
2022-12-11T18:53:41.682Z,100052.00
2022-12-11T18:56:12.593Z,100058.75
2022-12-11T18:58:40.100Z,100059.19
2022-12-11T19:01:14.054Z,100059.22
2022-12-11T19:03:41.219Z,100055.88
2022-12-11T19:06:18.208Z,100052.84
2022-12-11T19:08:45.746Z,100056.03
2022-12-11T19:11:18.460Z,100061.78
2022-12-11T19:13:45.969Z,100060.75
2022-12-11T19:16:33.414Z,100061.78
2022-12-11T19:19:04.156Z,100053.38
2022-12-11T19:21:31.555Z,100055.13
2022-12-11T19:23:59.402Z,100054.22
2022-12-11T19:26:26.350Z,100059.06
2022-12-11T19:28:53.752Z,100054.28
2022-12-11T19:31:22.881Z,100053.78
2022-12-11T19:33:50.166Z,100050.13
2022-12-11T19:36:20.771Z,100049.09
2022-12-11T19:38:47.984Z,100055.13
2022-12-11T19:41:26.955Z,100050.47
2022-12-11T19:43:59.026Z,100051.34
2022-12-11T19:46:27.203Z,100049.09
2022-12-11T19:48:57.198Z,100051.78
2022-12-11T19:51:40.132Z,100047.69
2022-12-11T19:54:09.441Z,100040.53
2022-12-11T19:56:36.370Z,100048.47
2022-12-11T19:59:05.856Z,100057.78
2022-12-11T20:01:37.014Z,100047.78
2022-12-11T20:04:12.144Z,100046.81
2022-12-11T20:06:41.745Z,100050.13
2022-12-11T20:09:11.932Z,100053.28
2022-12-11T20:11:41.792Z,100053.81
2022-12-11T20:14:08.942Z,100050.44
2022-12-11T20:19:22.838Z,100050.69
2022-12-11T20:21:49.683Z,100054.56
2022-12-11T20:24:16.587Z,100055.19
2022-12-11T20:26:43.629Z,100046.72
2022-12-11T20:29:13.046Z,100049.69
2022-12-11T20:31:40.264Z,100054.03
2022-12-11T20:34:07.808Z,100047.03
2022-12-11T20:36:35.205Z,100061.28
2022-12-11T20:39:02.163Z,100051.56
2022-12-11T20:41:31.876Z,100048.47
2022-12-11T20:43:59.242Z,100052.84
2022-12-11T20:46:27.736Z,100049.38
2022-12-11T20:48:58.449Z,100048.75
2022-12-11T20:51:26.772Z,100047.63
2022-12-11T20:53:59.440Z,100053.59
2022-12-11T20:56:29.664Z,100051.78
2022-12-11T20:58:58.506Z,100053.78
2022-12-11T21:01:30.653Z,100050.28
2022-12-11T21:03:58.862Z,100052.25
2022-12-11T21:06:32.872Z,100058.22
2022-12-11T21:09:04.844Z,100052.63
2022-12-11T21:11:32.228Z,100060.00
2022-12-11T21:13:59.255Z,100059.16
2022-12-11T21:16:26.530Z,100059.00
2022-12-11T21:18:57.520Z,100058.03
2022-12-11T21:21:25.533Z,100058.41
2022-12-11T21:23:52.800Z,100056.38
2022-12-11T21:26:20.384Z,100059.00
2022-12-11T21:28:47.236Z,100058.72
2022-12-11T21:31:17.226Z,100054.16
2022-12-11T21:33:45.267Z,100064.56
2022-12-11T21:36:13.800Z,100057.88
2022-12-11T21:38:42.080Z,100062.88
2022-12-11T21:41:19.665Z,100058.94
2022-12-11T21:46:36.065Z,100075.44
2022-12-11T21:49:03.460Z,100066.06
2022-12-11T21:51:37.923Z,100073.63
2022-12-11T21:54:10.196Z,100077.09
2022-12-11T21:56:37.094Z,100074.41
2022-12-11T21:59:04.255Z,100077.66
2022-12-11T22:01:38.714Z,100077.78
2022-12-11T22:04:08.245Z,100074.09
2022-12-11T22:06:35.665Z,100079.03
2022-12-11T22:09:03.611Z,100086.00
2022-12-11T22:11:33.333Z,100076.69
2022-12-11T22:14:00.593Z,100083.63
2022-12-11T22:16:27.776Z,100077.44
2022-12-11T22:18:54.697Z,100079.25
2022-12-11T22:21:21.554Z,100085.22
2022-12-11T22:23:48.578Z,100085.28
2022-12-11T22:26:25.621Z,100081.91
2022-12-11T22:28:53.056Z,100088.84
2022-12-11T22:31:23.956Z,100086.34
2022-12-11T22:33:53.580Z,100090.28
2022-12-11T22:36:25.655Z,100090.38
2022-12-11T22:38:53.390Z,100077.28
2022-12-11T22:41:32.303Z,100083.91
2022-12-11T22:43:59.799Z,100085.75
2022-12-11T22:46:29.907Z,100079.25
2022-12-11T22:48:58.463Z,100084.13
2022-12-11T22:51:25.410Z,100082.31
2022-12-11T22:53:52.296Z,100085.44
2022-12-11T22:56:19.466Z,100081.56
2022-12-11T22:58:46.496Z,100084.78
2022-12-11T23:01:21.036Z,100080.69
2022-12-11T23:03:48.560Z,100084.88
2022-12-11T23:06:19.034Z,100079.31
2022-12-11T23:08:46.504Z,100080.06
2022-12-11T23:11:27.120Z,100087.09
2022-12-11T23:13:54.513Z,100093.69
2022-12-11T23:16:25.299Z,100087.75
2022-12-11T23:18:52.273Z,100086.38
2022-12-11T23:21:20.041Z,100083.44
2022-12-11T23:23:46.901Z,100083.97
2022-12-11T23:26:15.210Z,100088.50
2022-12-11T23:28:42.441Z,100089.13
2022-12-11T23:31:10.029Z,100091.72
2022-12-11T23:33:37.512Z,100087.53
2022-12-11T23:36:05.141Z,100086.00
2022-12-11T23:38:32.596Z,100085.66
2022-12-11T23:41:02.330Z,100081.63
2022-12-11T23:43:29.262Z,100092.13
2022-12-11T23:45:56.340Z,100085.59
2022-12-11T23:48:23.495Z,100089.75
2022-12-11T23:50:50.348Z,100083.72
2022-12-11T23:53:17.275Z,100086.25
2022-12-11T23:55:45.453Z,100088.34
2022-12-11T23:58:12.458Z,100089.47
